sensor_id;sensor_type;location;lat;lon;timestamp;pressure;altitude;pressure_sealevel;temperature;humidity
50774;BME280;36745;48.544;8.918;2023-03-18T00:00:28;96933.31;;;8.35;72.52
50774;BME280;36745;48.544;8.918;2023-03-18T00:03:48;96924.03;;;8.29;72.36
50774;BME280;36745;48.544;8.918;2023-03-18T00:07:09;96932.97;;;8.17;72.45
50774;BME280;36745;48.544;8.918;2023-03-18T00:10:30;96935.06;;;8.13;72.56
50774;BME280;36745;48.544;8.918;2023-03-18T00:13:50;96936.44;;;8.05;73.51
50774;BME280;36745;48.544;8.918;2023-03-18T00:17:10;96941.19;;;8.04;73.68
50774;BME280;36745;48.544;8.918;2023-03-18T00:20:30;96941.94;;;8.05;73.88
50774;BME280;36745;48.544;8.918;2023-03-18T00:23:58;96945.38;;;8.09;73.74
50774;BME280;36745;48.544;8.918;2023-03-18T00:27:19;96939.72;;;7.99;73.65
50774;BME280;36745;48.544;8.918;2023-03-18T00:30:39;96953.28;;;7.90;73.60
50774;BME280;36745;48.544;8.918;2023-03-18T00:34:00;96951.25;;;7.78;73.36
50774;BME280;36745;48.544;8.918;2023-03-18T00:37:20;96949.72;;;7.77;73.43
50774;BME280;36745;48.544;8.918;2023-03-18T00:40:50;96948.16;;;7.76;75.08
50774;BME280;36745;48.544;8.918;2023-03-18T00:44:19;96954.50;;;7.73;75.05
50774;BME280;36745;48.544;8.918;2023-03-18T00:47:39;96959.31;;;7.69;75.45
50774;BME280;36745;48.544;8.918;2023-03-18T00:50:59;96955.38;;;7.70;76.04
50774;BME280;36745;48.544;8.918;2023-03-18T00:54:19;96959.66;;;7.71;76.01
50774;BME280;36745;48.544;8.918;2023-03-18T00:57:39;96957.75;;;7.68;75.79
50774;BME280;36745;48.544;8.918;2023-03-18T01:00:59;96955.38;;;7.70;74.81
50774;BME280;36745;48.544;8.918;2023-03-18T01:04:19;96961.69;;;7.67;75.23
50774;BME280;36745;48.544;8.918;2023-03-18T01:07:39;96964.13;;;7.65;74.72
50774;BME280;36745;48.544;8.918;2023-03-18T01:10:59;96957.59;;;7.59;75.73
50774;BME280;36745;48.544;8.918;2023-03-18T01:14:19;96959.94;;;7.61;75.81
50774;BME280;36745;48.544;8.918;2023-03-18T01:17:39;96957.97;;;7.61;76.30
50774;BME280;36745;48.544;8.918;2023-03-18T01:20:59;96958.69;;;7.62;77.12
50774;BME280;36745;48.544;8.918;2023-03-18T01:24:19;96955.53;;;7.63;77.01
50774;BME280;36745;48.544;8.918;2023-03-18T01:27:39;96950.72;;;7.67;76.96
50774;BME280;36745;48.544;8.918;2023-03-18T01:30:59;96956.47;;;7.56;77.91
50774;BME280;36745;48.544;8.918;2023-03-18T01:34:18;96957.09;;;7.64;77.41
50774;BME280;36745;48.544;8.918;2023-03-18T01:37:38;96960.88;;;7.70;77.03
50774;BME280;36745;48.544;8.918;2023-03-18T01:40:59;96962.41;;;7.71;77.11
50774;BME280;36745;48.544;8.918;2023-03-18T01:44:21;96954.84;;;7.75;76.74
50774;BME280;36745;48.544;8.918;2023-03-18T01:47:41;96949.53;;;7.68;77.24
50774;BME280;36745;48.544;8.918;2023-03-18T01:51:06;96955.69;;;7.72;77.17
50774;BME280;36745;48.544;8.918;2023-03-18T01:54:32;96955.03;;;7.68;77.42
50774;BME280;36745;48.544;8.918;2023-03-18T01:57:55;96954.69;;;7.66;77.65
50774;BME280;36745;48.544;8.918;2023-03-18T02:01:49;96955.38;;;7.70;77.09
50774;BME280;36745;48.544;8.918;2023-03-18T02:05:14;96947.31;;;7.63;77.26
50774;BME280;36745;48.544;8.918;2023-03-18T02:08:36;96948.50;;;7.62;77.17
50774;BME280;36745;48.544;8.918;2023-03-18T02:11:56;96968.84;;;7.65;75.98
50774;BME280;36745;48.544;8.918;2023-03-18T02:15:18;96951.75;;;7.73;75.32
50774;BME280;36745;48.544;8.918;2023-03-18T02:18:43;96948.69;;;7.55;76.78
50774;BME280;36745;48.544;8.918;2023-03-18T02:26:04;96961.97;;;7.56;77.04
50774;BME280;36745;48.544;8.918;2023-03-18T02:29:30;96975.09;;;7.49;76.41
50774;BME280;36745;48.544;8.918;2023-03-18T02:32:51;96964.69;;;7.40;77.17
50774;BME280;36745;48.544;8.918;2023-03-18T02:36:19;96950.72;;;7.35;77.98
50774;BME280;36745;48.544;8.918;2023-03-18T02:39:40;96946.78;;;7.36;77.71
50774;BME280;36745;48.544;8.918;2023-03-18T02:43:24;96938.25;;;7.34;77.63
50774;BME280;36745;48.544;8.918;2023-03-18T02:46:56;96945.59;;;7.37;77.91
50774;BME280;36745;48.544;8.918;2023-03-18T02:50:17;96949.03;;;7.41;77.18
50774;BME280;36745;48.544;8.918;2023-03-18T02:53:37;96942.50;;;7.35;77.22
50774;BME280;36745;48.544;8.918;2023-03-18T02:56:57;96947.66;;;7.33;77.67
50774;BME280;36745;48.544;8.918;2023-03-18T03:00:17;96957.94;;;7.29;77.76
50774;BME280;36745;48.544;8.918;2023-03-18T03:03:37;96968.38;;;7.18;77.92
50774;BME280;36745;48.544;8.918;2023-03-18T03:06:57;96967.25;;;7.15;78.38
50774;BME280;36745;48.544;8.918;2023-03-18T03:10:17;96965.97;;;7.20;78.26
50774;BME280;36745;48.544;8.918;2023-03-18T03:13:39;96965.13;;;7.23;77.73
50774;BME280;36745;48.544;8.918;2023-03-18T03:17:00;96968.53;;;7.10;78.36
50774;BME280;36745;48.544;8.918;2023-03-18T03:20:20;96972.06;;;7.11;77.97
50774;BME280;36745;48.544;8.918;2023-03-18T03:23:40;96967.84;;;7.06;78.52
50774;BME280;36745;48.544;8.918;2023-03-18T03:27:01;96980.25;;;6.95;78.64
50774;BME280;36745;48.544;8.918;2023-03-18T03:30:21;96981.00;;;6.95;77.99
50774;BME280;36745;48.544;8.918;2023-03-18T03:33:42;96983.44;;;6.73;78.47
50774;BME280;36745;48.544;8.918;2023-03-18T03:37:02;96984.53;;;6.76;78.59
50774;BME280;36745;48.544;8.918;2023-03-18T03:40:22;96983.66;;;6.63;78.83
50774;BME280;36745;48.544;8.918;2023-03-18T03:43:42;96984.56;;;6.56;79.29
50774;BME280;36745;48.544;8.918;2023-03-18T03:47:03;96980.75;;;6.50;79.31
50774;BME280;36745;48.544;8.918;2023-03-18T03:50:22;96972.97;;;6.49;79.73
50774;BME280;36745;48.544;8.918;2023-03-18T03:53:42;96977.63;;;6.52;79.77
50774;BME280;36745;48.544;8.918;2023-03-18T03:57:04;96979.00;;;6.40;80.24
50774;BME280;36745;48.544;8.918;2023-03-18T04:00:24;96989.19;;;6.40;79.56
50774;BME280;36745;48.544;8.918;2023-03-18T04:03:44;96984.97;;;6.35;80.28
50774;BME280;36745;48.544;8.918;2023-03-18T04:07:04;96986.44;;;6.40;80.49
50774;BME280;36745;48.544;8.918;2023-03-18T04:10:24;96980.97;;;6.40;79.82
50774;BME280;36745;48.544;8.918;2023-03-18T04:13:46;96982.31;;;6.31;80.08
50774;BME280;36745;48.544;8.918;2023-03-18T04:17:05;96988.25;;;6.26;80.65
50774;BME280;36745;48.544;8.918;2023-03-18T04:20:26;96998.38;;;6.29;80.78
50774;BME280;36745;48.544;8.918;2023-03-18T04:23:45;96986.25;;;6.30;80.49
50774;BME280;36745;48.544;8.918;2023-03-18T04:27:05;96990.69;;;6.21;80.74
50774;BME280;36745;48.544;8.918;2023-03-18T04:30:25;96993.03;;;6.22;80.71
50774;BME280;36745;48.544;8.918;2023-03-18T04:33:45;96993.50;;;6.17;81.08
50774;BME280;36745;48.544;8.918;2023-03-18T04:37:06;96998.91;;;6.21;80.84
50774;BME280;36745;48.544;8.918;2023-03-18T04:40:27;96997.09;;;6.14;80.83
50774;BME280;36745;48.544;8.918;2023-03-18T04:43:46;96995.38;;;6.01;80.49
50774;BME280;36745;48.544;8.918;2023-03-18T04:47:07;96999.16;;;5.83;80.49
50774;BME280;36745;48.544;8.918;2023-03-18T04:50:27;96996.13;;;5.78;80.77
50774;BME280;36745;48.544;8.918;2023-03-18T04:53:47;96993.25;;;5.62;81.64
50774;BME280;36745;48.544;8.918;2023-03-18T04:57:07;96996.31;;;5.67;81.59
50774;BME280;36745;48.544;8.918;2023-03-18T05:00:27;97002.06;;;5.73;81.78
50774;BME280;36745;48.544;8.918;2023-03-18T05:03:47;97004.03;;;5.72;81.74
50774;BME280;36745;48.544;8.918;2023-03-18T05:07:07;97000.66;;;5.65;81.68
50774;BME280;36745;48.544;8.918;2023-03-18T05:10:27;97002.06;;;5.49;80.72
50774;BME280;36745;48.544;8.918;2023-03-18T05:13:47;97001.63;;;5.28;81.58
50774;BME280;36745;48.544;8.918;2023-03-18T05:17:08;97005.47;;;5.30;82.34
50774;BME280;36745;48.544;8.918;2023-03-18T05:20:33;97003.91;;;5.29;82.54
50774;BME280;36745;48.544;8.918;2023-03-18T05:23:54;97007.13;;;5.24;82.40
50774;BME280;36745;48.544;8.918;2023-03-18T05:27:16;97007.69;;;5.12;81.58
50774;BME280;36745;48.544;8.918;2023-03-18T05:30:36;97012.06;;;5.06;82.37
50774;BME280;36745;48.544;8.918;2023-03-18T05:33:58;97014.19;;;4.95;82.32
50774;BME280;36745;48.544;8.918;2023-03-18T05:37:19;97013.47;;;4.91;82.66
50774;BME280;36745;48.544;8.918;2023-03-18T05:40:39;97011.91;;;4.90;83.14
50774;BME280;36745;48.544;8.918;2023-03-18T05:43:58;97019.41;;;4.82;82.87
50774;BME280;36745;48.544;8.918;2023-03-18T05:47:18;97018.75;;;4.71;83.75
50774;BME280;36745;48.544;8.918;2023-03-18T05:50:40;97017.19;;;4.70;83.33
50774;BME280;36745;48.544;8.918;2023-03-18T05:54:00;97016.47;;;4.70;83.44
50774;BME280;36745;48.544;8.918;2023-03-18T05:57:20;97014.06;;;4.72;82.58
50774;BME280;36745;48.544;8.918;2023-03-18T06:00:40;97013.34;;;4.68;82.39
50774;BME280;36745;48.544;8.918;2023-03-18T06:04:00;97021.28;;;4.55;82.78
50774;BME280;36745;48.544;8.918;2023-03-18T06:07:20;97016.06;;;4.37;83.59
50774;BME280;36745;48.544;8.918;2023-03-18T06:10:39;97027.31;;;4.39;83.99
50774;BME280;36745;48.544;8.918;2023-03-18T06:13:59;97033.06;;;4.48;84.30
50774;BME280;36745;48.544;8.918;2023-03-18T06:17:19;97036.91;;;4.54;84.12
50774;BME280;36745;48.544;8.918;2023-03-18T06:20:39;97036.16;;;4.50;84.14
50774;BME280;36745;48.544;8.918;2023-03-18T06:23:59;97035.78;;;4.48;83.90
50774;BME280;36745;48.544;8.918;2023-03-18T06:27:19;97033.50;;;4.43;84.29
50774;BME280;36745;48.544;8.918;2023-03-18T06:30:40;97039.75;;;4.44;84.57
50774;BME280;36745;48.544;8.918;2023-03-18T06:33:59;97042.44;;;4.47;84.81
50774;BME280;36745;48.544;8.918;2023-03-18T06:37:19;97036.91;;;4.54;85.26
50774;BME280;36745;48.544;8.918;2023-03-18T06:40:40;97036.81;;;4.61;84.85
50774;BME280;36745;48.544;8.918;2023-03-18T06:44:00;97033.63;;;4.67;85.31
50774;BME280;36745;48.544;8.918;2023-03-18T06:47:20;97042.94;;;4.73;84.39
50774;BME280;36745;48.544;8.918;2023-03-18T06:50:41;97042.34;;;4.88;84.08
50774;BME280;36745;48.544;8.918;2023-03-18T06:54:01;97041.03;;;5.00;84.22
50774;BME280;36745;48.544;8.918;2023-03-18T06:57:21;97037.69;;;5.16;83.77
50774;BME280;36745;48.544;8.918;2023-03-18T07:00:41;97038.53;;;5.39;83.47
50774;BME280;36745;48.544;8.918;2023-03-18T07:04:03;97038.00;;;5.48;83.99
50774;BME280;36745;48.544;8.918;2023-03-18T07:07:25;97027.94;;;5.68;84.03
50774;BME280;36745;48.544;8.918;2023-03-18T07:10:44;97032.81;;;5.80;84.73
50774;BME280;36745;48.544;8.918;2023-03-18T07:14:04;97037.31;;;6.17;83.82
50774;BME280;36745;48.544;8.918;2023-03-18T07:17:24;97041.56;;;6.42;83.87
50774;BME280;36745;48.544;8.918;2023-03-18T07:20:44;97043.13;;;6.62;84.42
50774;BME280;36745;48.544;8.918;2023-03-18T07:24:03;97044.66;;;7.03;83.57
50774;BME280;36745;48.544;8.918;2023-03-18T07:27:24;97044.28;;;7.21;83.31
50774;BME280;36745;48.544;8.918;2023-03-18T07:30:43;97042.44;;;7.34;83.47
50774;BME280;36745;48.544;8.918;2023-03-18T07:34:03;97048.63;;;7.54;83.01
50774;BME280;36745;48.544;8.918;2023-03-18T07:37:23;97047.78;;;7.73;83.34
50774;BME280;36745;48.544;8.918;2023-03-18T07:40:43;97053.78;;;7.84;82.09
50774;BME280;36745;48.544;8.918;2023-03-18T07:44:04;97062.22;;;7.93;81.54
50774;BME280;36745;48.544;8.918;2023-03-18T07:47:24;97057.72;;;8.16;82.13
50774;BME280;36745;48.544;8.918;2023-03-18T07:50:44;97064.56;;;8.56;82.31
50774;BME280;36745;48.544;8.918;2023-03-18T07:54:04;97057.63;;;8.80;81.81
50774;BME280;36745;48.544;8.918;2023-03-18T07:57:24;97061.84;;;8.98;80.84
50774;BME280;36745;48.544;8.918;2023-03-18T08:00:44;97050.16;;;9.22;81.30
50774;BME280;36745;48.544;8.918;2023-03-18T08:04:04;97052.81;;;9.51;80.58
50774;BME280;36745;48.544;8.918;2023-03-18T08:07:24;97049.09;;;9.71;79.57
50774;BME280;36745;48.544;8.918;2023-03-18T08:10:44;97049.63;;;9.91;77.39
50774;BME280;36745;48.544;8.918;2023-03-18T08:14:04;97047.38;;;10.11;76.52
50774;BME280;36745;48.544;8.918;2023-03-18T08:17:24;97051.34;;;10.35;76.79
50774;BME280;36745;48.544;8.918;2023-03-18T08:20:44;97044.63;;;10.36;73.21
50774;BME280;36745;48.544;8.918;2023-03-18T08:24:04;97041.13;;;10.58;74.86
50774;BME280;36745;48.544;8.918;2023-03-18T08:27:24;97049.63;;;10.85;75.30
50774;BME280;36745;48.544;8.918;2023-03-18T08:30:44;97053.44;;;11.09;75.25
50774;BME280;36745;48.544;8.918;2023-03-18T08:34:05;97041.81;;;11.14;72.71
50774;BME280;36745;48.544;8.918;2023-03-18T08:37:25;97052.66;;;11.30;73.44
50774;BME280;36745;48.544;8.918;2023-03-18T08:40:46;97045.97;;;11.41;71.40
50774;BME280;36745;48.544;8.918;2023-03-18T08:44:06;97045.09;;;11.53;71.51
50774;BME280;36745;48.544;8.918;2023-03-18T08:47:29;97043.66;;;11.70;70.63
50774;BME280;36745;48.544;8.918;2023-03-18T08:50:49;97046.47;;;11.79;70.07
50774;BME280;36745;48.544;8.918;2023-03-18T08:54:09;97041.63;;;11.92;68.19
50774;BME280;36745;48.544;8.918;2023-03-18T08:57:29;97041.19;;;12.12;69.93
50774;BME280;36745;48.544;8.918;2023-03-18T09:00:53;97034.00;;;12.24;69.05
50774;BME280;36745;48.544;8.918;2023-03-18T09:04:13;97036.50;;;12.31;68.72
50774;BME280;36745;48.544;8.918;2023-03-18T09:07:33;97029.59;;;12.44;68.13
50774;BME280;36745;48.544;8.918;2023-03-18T09:10:53;97022.06;;;12.63;67.28
50774;BME280;36745;48.544;8.918;2023-03-18T09:14:13;97016.53;;;12.72;66.69
50774;BME280;36745;48.544;8.918;2023-03-18T09:17:32;97020.66;;;12.86;66.48
50774;BME280;36745;48.544;8.918;2023-03-18T09:20:52;97026.63;;;13.02;65.60
50774;BME280;36745;48.544;8.918;2023-03-18T09:24:12;97020.50;;;12.98;64.73
50774;BME280;36745;48.544;8.918;2023-03-18T09:27:32;97021.09;;;13.02;62.84
50774;BME280;36745;48.544;8.918;2023-03-18T09:30:52;97022.66;;;13.22;63.28
50774;BME280;36745;48.544;8.918;2023-03-18T09:34:12;97016.91;;;13.43;62.09
50774;BME280;36745;48.544;8.918;2023-03-18T09:37:32;97007.00;;;13.52;61.50
50774;BME280;36745;48.544;8.918;2023-03-18T09:44:29;96997.16;;;13.51;57.06
50774;BME280;36745;48.544;8.918;2023-03-18T09:52:23;97000.53;;;13.87;56.37
50774;BME280;36745;48.544;8.918;2023-03-18T09:55:51;97000.50;;;13.97;54.66
50774;BME280;36745;48.544;8.918;2023-03-18T09:59:19;96991.59;;;13.93;52.61
50774;BME280;36745;48.544;8.918;2023-03-18T10:02:52;96993.31;;;14.14;53.20
50774;BME280;36745;48.544;8.918;2023-03-18T10:06:16;96995.03;;;14.35;51.93
50774;BME280;36745;48.544;8.918;2023-03-18T10:09:41;96995.28;;;14.46;51.08
50774;BME280;36745;48.544;8.918;2023-03-18T10:13:12;96989.19;;;14.57;49.92
50774;BME280;36745;48.544;8.918;2023-03-18T10:31:21;96995.78;;;15.27;47.38
50774;BME280;36745;48.544;8.918;2023-03-18T10:38:17;96992.88;;;15.36;49.13
50774;BME280;36745;48.544;8.918;2023-03-18T10:41:37;96984.16;;;15.29;46.21
50774;BME280;36745;48.544;8.918;2023-03-18T10:48:50;96973.91;;;15.64;46.93
50774;BME280;36745;48.544;8.918;2023-03-18T10:52:19;96983.97;;;15.62;45.36
50774;BME280;36745;48.544;8.918;2023-03-18T10:56:05;96976.16;;;16.35;43.70
50774;BME280;36745;48.544;8.918;2023-03-18T10:59:27;96966.41;;;17.75;44.08
50774;BME280;36745;48.544;8.918;2023-03-18T11:02:48;96959.63;;;19.16;41.72
50774;BME280;36745;48.544;8.918;2023-03-18T11:06:39;96949.81;;;20.51;43.33
50774;BME280;36745;48.544;8.918;2023-03-18T11:10:23;96947.66;;;21.20;39.55
50774;BME280;36745;48.544;8.918;2023-03-18T11:13:50;96947.09;;;22.11;39.23
50774;BME280;36745;48.544;8.918;2023-03-18T11:20:45;96944.34;;;22.30;37.80
50774;BME280;36745;48.544;8.918;2023-03-18T11:24:23;96927.97;;;22.53;35.36
50774;BME280;36745;48.544;8.918;2023-03-18T11:28:02;96930.09;;;23.22;36.53
50774;BME280;36745;48.544;8.918;2023-03-18T11:31:22;96919.56;;;23.41;35.02
50774;BME280;36745;48.544;8.918;2023-03-18T11:34:53;96926.00;;;22.29;33.89
50774;BME280;36745;48.544;8.918;2023-03-18T11:38:29;96933.34;;;22.94;34.14
50774;BME280;36745;48.544;8.918;2023-03-18T11:41:50;96924.09;;;23.44;33.40
50774;BME280;36745;48.544;8.918;2023-03-18T11:48:50;96914.72;;;24.13;31.81
50774;BME280;36745;48.544;8.918;2023-03-18T11:56:18;96908.84;;;23.71;31.53
50774;BME280;36745;48.544;8.918;2023-03-18T11:59:59;96904.97;;;23.88;29.63
50774;BME280;36745;48.544;8.918;2023-03-18T12:14:53;96893.25;;;23.83;28.19
50774;BME280;36745;48.544;8.918;2023-03-18T12:25:33;96877.13;;;24.97;28.58
50774;BME280;36745;48.544;8.918;2023-03-18T12:29:29;96870.03;;;25.03;27.87
50774;BME280;36745;48.544;8.918;2023-03-18T12:33:08;96873.88;;;24.93;28.39
50774;BME280;36745;48.544;8.918;2023-03-18T12:37:08;96870.75;;;24.36;27.53
50774;BME280;36745;48.544;8.918;2023-03-18T12:47:51;96864.53;;;23.14;27.64
50774;BME280;36745;48.544;8.918;2023-03-18T12:51:23;96857.34;;;22.99;27.40
50774;BME280;36745;48.544;8.918;2023-03-18T12:54:48;96865.41;;;22.52;28.14
50774;BME280;36745;48.544;8.918;2023-03-18T12:58:12;96861.78;;;22.76;28.36
50774;BME280;36745;48.544;8.918;2023-03-18T13:01:35;96852.66;;;22.51;27.58
50774;BME280;36745;48.544;8.918;2023-03-18T13:05:01;96854.00;;;22.07;27.63
50774;BME280;36745;48.544;8.918;2023-03-18T13:15:34;96858.44;;;20.48;28.45
50774;BME280;36745;48.544;8.918;2023-03-18T13:18:57;96855.34;;;20.51;28.52
50774;BME280;36745;48.544;8.918;2023-03-18T13:22:25;96864.19;;;20.09;29.05
50774;BME280;36745;48.544;8.918;2023-03-18T13:37:04;96851.38;;;19.61;30.02
50774;BME280;36745;48.544;8.918;2023-03-18T13:44:39;96848.00;;;19.91;29.96
50774;BME280;36745;48.544;8.918;2023-03-18T13:48:09;96851.53;;;19.97;30.51
50774;BME280;36745;48.544;8.918;2023-03-18T13:54:50;96850.44;;;20.11;30.63
50774;BME280;36745;48.544;8.918;2023-03-18T13:58:26;96841.41;;;19.83;30.21
50774;BME280;36745;48.544;8.918;2023-03-18T14:01:49;96836.09;;;19.74;30.25
50774;BME280;36745;48.544;8.918;2023-03-18T14:05:42;96836.41;;;19.53;30.13
50774;BME280;36745;48.544;8.918;2023-03-18T14:12:47;96837.38;;;19.61;30.91
50774;BME280;36745;48.544;8.918;2023-03-18T14:16:09;96833.34;;;19.51;30.75
50774;BME280;36745;48.544;8.918;2023-03-18T14:19:30;96828.25;;;19.44;30.84
50774;BME280;36745;48.544;8.918;2023-03-18T14:22:55;96833.09;;;19.33;31.11
50774;BME280;36745;48.544;8.918;2023-03-18T14:26:24;96823.97;;;19.26;31.00
50774;BME280;36745;48.544;8.918;2023-03-18T14:29:46;96834.13;;;19.18;31.06
50774;BME280;36745;48.544;8.918;2023-03-18T14:40:15;96814.09;;;18.98;31.05
50774;BME280;36745;48.544;8.918;2023-03-18T14:43:39;96809.53;;;18.95;31.37
50774;BME280;36745;48.544;8.918;2023-03-18T14:47:03;96806.75;;;18.78;30.70
50774;BME280;36745;48.544;8.918;2023-03-18T14:54:04;96788.19;;;18.80;31.69
50774;BME280;36745;48.544;8.918;2023-03-18T14:57:24;96801.66;;;18.88;31.73
50774;BME280;36745;48.544;8.918;2023-03-18T15:00:45;96804.19;;;18.85;31.94
50774;BME280;36745;48.544;8.918;2023-03-18T15:04:13;96795.56;;;18.83;32.11
50774;BME280;36745;48.544;8.918;2023-03-18T15:07:38;96790.75;;;18.78;31.97
50774;BME280;36745;48.544;8.918;2023-03-18T15:11:01;96794.81;;;18.77;32.05
50774;BME280;36745;48.544;8.918;2023-03-18T15:14:30;96792.03;;;18.77;32.29
50774;BME280;36745;48.544;8.918;2023-03-18T15:17:50;96782.63;;;18.80;32.35
50774;BME280;36745;48.544;8.918;2023-03-18T15:21:17;96791.25;;;18.82;32.18
50774;BME280;36745;48.544;8.918;2023-03-18T15:24:39;96786.16;;;18.86;32.35
50774;BME280;36745;48.544;8.918;2023-03-18T15:27:59;96789.47;;;18.79;32.30
50774;BME280;36745;48.544;8.918;2023-03-18T15:34:44;96782.59;;;18.69;32.14
50774;BME280;36745;48.544;8.918;2023-03-18T15:41:29;96789.44;;;18.57;31.95
50774;BME280;36745;48.544;8.918;2023-03-18T15:45:02;96789.44;;;18.46;31.63
50774;BME280;36745;48.544;8.918;2023-03-18T15:51:48;96782.53;;;18.25;31.72
50774;BME280;36745;48.544;8.918;2023-03-18T15:55:32;96785.06;;;18.12;31.74
50774;BME280;36745;48.544;8.918;2023-03-18T15:59:05;96789.09;;;18.11;32.09
50774;BME280;36745;48.544;8.918;2023-03-18T16:02:25;96793.41;;;18.12;32.11
50774;BME280;36745;48.544;8.918;2023-03-18T16:05:46;96792.16;;;18.07;32.57
50774;BME280;36745;48.544;8.918;2023-03-18T16:09:19;96801.25;;;17.96;32.61
50774;BME280;36745;48.544;8.918;2023-03-18T16:12:39;96806.28;;;17.92;32.74
50774;BME280;36745;48.544;8.918;2023-03-18T16:15:59;96800.69;;;17.81;32.94
50774;BME280;36745;48.544;8.918;2023-03-18T16:19:25;96812.53;;;17.71;33.13
50774;BME280;36745;48.544;8.918;2023-03-18T16:22:46;96817.28;;;17.59;33.67
50774;BME280;36745;48.544;8.918;2023-03-18T16:26:14;96826.06;;;17.46;33.65
50774;BME280;36745;48.544;8.918;2023-03-18T16:29:35;96826.53;;;17.39;34.30
50774;BME280;36745;48.544;8.918;2023-03-18T16:32:57;96830.28;;;17.31;34.70
50774;BME280;36745;48.544;8.918;2023-03-18T16:36:28;96834.00;;;17.22;35.43
50774;BME280;36745;48.544;8.918;2023-03-18T16:39:50;96835.25;;;17.15;35.66
50774;BME280;36745;48.544;8.918;2023-03-18T16:43:24;96843.78;;;17.06;36.46
50774;BME280;36745;48.544;8.918;2023-03-18T16:46:48;96850.78;;;16.96;37.07
50774;BME280;36745;48.544;8.918;2023-03-18T16:50:17;96848.91;;;16.82;37.48
50774;BME280;36745;48.544;8.918;2023-03-18T16:53:38;96851.06;;;16.67;37.55
50774;BME280;36745;48.544;8.918;2023-03-18T16:57:01;96857.47;;;16.53;38.10
50774;BME280;36745;48.544;8.918;2023-03-18T17:00:24;96863.63;;;16.36;38.17
50774;BME280;36745;48.544;8.918;2023-03-18T17:03:44;96864.19;;;16.20;38.32
50774;BME280;36745;48.544;8.918;2023-03-18T17:07:04;96871.31;;;16.01;38.68
50774;BME280;36745;48.544;8.918;2023-03-18T17:10:25;96870.91;;;15.88;38.86
50774;BME280;36745;48.544;8.918;2023-03-18T17:13:45;96880.75;;;15.69;39.11
50774;BME280;36745;48.544;8.918;2023-03-18T17:17:11;96877.75;;;15.52;39.46
50774;BME280;36745;48.544;8.918;2023-03-18T17:20:33;96883.59;;;15.39;39.65
50774;BME280;36745;48.544;8.918;2023-03-18T17:23:53;96894.25;;;15.26;39.88
50774;BME280;36745;48.544;8.918;2023-03-18T17:27:19;96890.25;;;15.12;40.33
50774;BME280;36745;48.544;8.918;2023-03-18T17:30:40;96891.81;;;14.99;40.36
50774;BME280;36745;48.544;8.918;2023-03-18T17:34:00;96896.09;;;14.85;40.81
50774;BME280;36745;48.544;8.918;2023-03-18T17:37:20;96890.56;;;14.70;40.96
50774;BME280;36745;48.544;8.918;2023-03-18T17:40:39;96890.66;;;14.61;41.39
50774;BME280;36745;48.544;8.918;2023-03-18T17:44:00;96896.00;;;14.50;41.98
50774;BME280;36745;48.544;8.918;2023-03-18T17:47:20;96906.22;;;14.44;41.94
50774;BME280;36745;48.544;8.918;2023-03-18T17:50:40;96908.75;;;14.33;42.58
50774;BME280;36745;48.544;8.918;2023-03-18T17:54:02;96902.44;;;14.18;42.74
50774;BME280;36745;48.544;8.918;2023-03-18T17:57:24;96902.56;;;14.00;43.22
50774;BME280;36745;48.544;8.918;2023-03-18T18:00:46;96907.88;;;13.88;43.51
50774;BME280;36745;48.544;8.918;2023-03-18T18:04:13;96907.94;;;13.79;43.53
50774;BME280;36745;48.544;8.918;2023-03-18T18:07:33;96908.94;;;13.67;43.85
50774;BME280;36745;48.544;8.918;2023-03-18T18:11:14;96908.69;;;13.56;43.68
50774;BME280;36745;48.544;8.918;2023-03-18T18:14:36;96904.75;;;13.48;44.43
50774;BME280;36745;48.544;8.918;2023-03-18T18:17:56;96909.38;;;13.42;44.29
50774;BME280;36745;48.544;8.918;2023-03-18T18:21:18;96909.13;;;13.31;44.49
50774;BME280;36745;48.544;8.918;2023-03-18T18:24:39;96907.31;;;13.19;44.83
50774;BME280;36745;48.544;8.918;2023-03-18T18:28:00;96916.09;;;13.08;45.13
50774;BME280;36745;48.544;8.918;2023-03-18T18:31:20;96925.16;;;13.09;44.94
50774;BME280;36745;48.544;8.918;2023-03-18T18:34:41;96930.41;;;12.97;45.33
50774;BME280;36745;48.544;8.918;2023-03-18T18:38:01;96933.50;;;12.99;44.32
50774;BME280;36745;48.544;8.918;2023-03-18T18:41:21;96928.78;;;12.82;45.86
50774;BME280;36745;48.544;8.918;2023-03-18T18:44:41;96936.00;;;12.70;46.25
50774;BME280;36745;48.544;8.918;2023-03-18T18:48:10;96938.19;;;12.66;46.18
50774;BME280;36745;48.544;8.918;2023-03-18T18:51:31;96932.53;;;12.51;46.88
50774;BME280;36745;48.544;8.918;2023-03-18T18:54:51;96932.81;;;12.44;47.42
50774;BME280;36745;48.544;8.918;2023-03-18T18:58:16;96933.28;;;12.43;47.35
50774;BME280;36745;48.544;8.918;2023-03-18T19:01:40;96935.44;;;12.39;47.16
50774;BME280;36745;48.544;8.918;2023-03-18T19:05:00;96932.81;;;12.26;47.18
50774;BME280;36745;48.544;8.918;2023-03-18T19:08:28;96939.56;;;12.16;48.01
50774;BME280;36745;48.544;8.918;2023-03-18T19:11:50;96941.88;;;12.08;48.98
50774;BME280;36745;48.544;8.918;2023-03-18T19:15:10;96944.94;;;12.01;49.10
50774;BME280;36745;48.544;8.918;2023-03-18T19:18:40;96940.94;;;11.93;48.82
50774;BME280;36745;48.544;8.918;2023-03-18T19:22:01;96943.69;;;11.93;48.97
50774;BME280;36745;48.544;8.918;2023-03-18T19:25:24;96957.66;;;11.81;49.09
50774;BME280;36745;48.544;8.918;2023-03-18T19:28:44;96957.16;;;11.73;49.71
50774;BME280;36745;48.544;8.918;2023-03-18T19:32:14;96959.56;;;11.62;49.97
50774;BME280;36745;48.544;8.918;2023-03-18T19:35:34;96965.19;;;11.49;50.46
50774;BME280;36745;48.544;8.918;2023-03-18T19:38:56;96966.09;;;11.46;50.89
50774;BME280;36745;48.544;8.918;2023-03-18T19:42:17;96965.31;;;11.36;50.83
50774;BME280;36745;48.544;8.918;2023-03-18T19:45:37;96972.03;;;11.35;51.43
50774;BME280;36745;48.544;8.918;2023-03-18T19:48:56;96968.50;;;11.35;51.31
50774;BME280;36745;48.544;8.918;2023-03-18T19:52:19;96970.13;;;11.23;51.70
50774;BME280;36745;48.544;8.918;2023-03-18T19:55:39;96972.84;;;11.14;52.15
50774;BME280;36745;48.544;8.918;2023-03-18T19:59:00;96975.75;;;11.11;52.40
50774;BME280;36745;48.544;8.918;2023-03-18T20:02:24;96975.59;;;11.05;52.71